Lebam, Washington
Current Conditions -  °F | °C
As of 1:35 AM on Sunday 23 Nov 2014 (Local Time) from KCLS Reporting Station
Overcast Overcast  
Wind Chill: 45°   Ceiling: 4700
Heat Index: 45°   Visibility: 10mi
Dew Point: 43°   Wind: 3mph
Humidity: 93%   Direction: NA
Pressure: 30.2"   Gusts: NA
Location:  46.56°N, 123.55°W
Report Text: KCLS 230935Z AUTO VRB03KT 10SM SCT037 BKN047 OVC110 07/06 A3020 RMK AO2
Loading
Personal Weather Stations






























Interactive Weather Map New forecast layout! Learn more

10-Day Weather Forecast

Advertisements
Track Severe Weather on mobile